createdAt,value
2023-02-13T00:01:01.009Z,3.33
2023-02-13T00:03:29.451Z,3.30
2023-02-13T00:05:58.110Z,5.28
2023-02-13T00:08:26.026Z,4.72
2023-02-13T00:10:53.836Z,7.00
2023-02-13T00:13:21.655Z,4.88
2023-02-13T00:15:59.731Z,7.05
2023-02-13T00:18:28.993Z,2.75
2023-02-13T00:21:13.831Z,4.72
2023-02-13T00:23:42.347Z,2.88
2023-02-13T00:26:13.158Z,3.97
2023-02-13T00:28:45.749Z,6.10
2023-02-13T00:31:16.508Z,3.53
2023-02-13T00:33:45.713Z,3.97
2023-02-13T00:36:17.693Z,7.45
2023-02-13T00:38:47.101Z,5.43
2023-02-13T00:41:17.768Z,5.65
2023-02-13T00:43:47.279Z,5.45
2023-02-13T00:46:17.421Z,6.30
2023-02-13T00:48:45.636Z,4.35
2023-02-13T00:51:13.935Z,3.45
2023-02-13T00:53:42.374Z,6.18
2023-02-13T00:56:10.910Z,5.80
2023-02-13T00:58:39.734Z,3.92
2023-02-13T01:01:08.016Z,5.43
2023-02-13T01:03:36.638Z,4.22
2023-02-13T01:06:05.688Z,3.85
2023-02-13T01:08:34.503Z,6.07
2023-02-13T01:11:02.583Z,4.05
2023-02-13T01:13:31.163Z,6.03
2023-02-13T01:15:59.396Z,4.55
2023-02-13T01:18:27.776Z,5.50
2023-02-13T01:21:01.021Z,7.63
2023-02-13T01:23:35.078Z,6.93
2023-02-13T01:26:05.535Z,5.43
2023-02-13T01:28:33.878Z,5.28
2023-02-13T01:31:02.906Z,7.03
2023-02-13T01:33:31.460Z,6.20
2023-02-13T01:36:00.784Z,7.80
2023-02-13T01:38:29.688Z,5.55
2023-02-13T01:40:58.198Z,6.18
2023-02-13T01:43:44.281Z,4.93
2023-02-13T01:46:13.113Z,4.13
2023-02-13T01:48:41.429Z,3.40
2023-02-13T01:51:14.956Z,3.30
2023-02-13T01:53:48.192Z,2.33
2023-02-13T01:56:39.083Z,2.80
2023-02-13T01:59:18.699Z,4.97
2023-02-13T02:01:48.844Z,6.10
2023-02-13T02:04:25.111Z,3.92
2023-02-13T02:06:58.289Z,9.07
2023-02-13T02:09:35.807Z,4.28
2023-02-13T02:14:42.822Z,4.38
2023-02-13T02:17:13.040Z,7.03
2023-02-13T02:20:05.625Z,5.00
2023-02-13T02:31:28.512Z,4.72
2023-02-13T02:39:41.393Z,8.82
2023-02-13T02:42:31.008Z,6.60
2023-02-13T02:45:07.499Z,5.85
2023-02-13T02:48:05.474Z,4.53
2023-02-13T02:56:16.213Z,3.95
2023-02-13T02:59:09.091Z,4.88
2023-02-13T03:01:57.318Z,4.70
2023-02-13T03:07:16.534Z,4.15
2023-02-13T03:10:08.930Z,4.20
2023-02-13T03:13:01.585Z,3.95
2023-02-13T03:15:30.120Z,3.60
2023-02-13T03:18:18.580Z,5.45
2023-02-13T03:21:10.839Z,5.65
2023-02-13T03:29:25.084Z,3.00
2023-02-13T03:32:02.352Z,4.25
2023-02-13T03:34:57.425Z,4.30
2023-02-13T03:37:53.692Z,3.67
2023-02-13T03:40:30.082Z,3.65
2023-02-13T03:43:16.628Z,3.58
2023-02-13T03:45:54.922Z,3.72
2023-02-13T03:48:53.584Z,3.53
2023-02-13T03:51:44.339Z,4.65
2023-02-13T03:57:11.336Z,0.55
2023-02-13T03:59:39.622Z,4.32
2023-02-13T04:02:14.378Z,1.58
2023-02-13T04:07:29.991Z,2.67
2023-02-13T04:10:00.508Z,5.40
2023-02-13T04:12:39.979Z,3.90
2023-02-13T04:15:16.525Z,3.72
2023-02-13T04:17:51.129Z,1.80
2023-02-13T04:20:19.475Z,2.67
2023-02-13T04:22:49.308Z,3.53
2023-02-13T04:25:18.620Z,2.97
2023-02-13T04:27:47.159Z,3.33
2023-02-13T04:30:15.834Z,3.38
2023-02-13T04:32:43.969Z,4.50
2023-02-13T04:35:13.561Z,5.55
2023-02-13T04:37:42.212Z,3.25
2023-02-13T04:40:11.294Z,3.78
2023-02-13T04:42:39.338Z,2.53
2023-02-13T04:45:07.598Z,3.38
2023-02-13T04:47:36.916Z,5.70
2023-02-13T04:50:05.147Z,5.00
2023-02-13T04:52:33.728Z,2.42
2023-02-13T04:55:01.927Z,3.75
2023-02-13T04:57:31.167Z,2.75
2023-02-13T04:59:59.558Z,3.17
2023-02-13T05:02:28.142Z,3.42
2023-02-13T05:04:56.011Z,1.77
2023-02-13T05:07:24.080Z,2.17
2023-02-13T05:09:52.578Z,6.00
2023-02-13T05:12:20.795Z,2.42
2023-02-13T05:14:49.061Z,2.50
2023-02-13T05:17:17.320Z,4.20
2023-02-13T05:19:45.516Z,2.92
2023-02-13T05:22:33.467Z,2.95
2023-02-13T05:25:01.831Z,3.88
2023-02-13T05:27:32.032Z,1.08
2023-02-13T05:30:00.660Z,5.72
2023-02-13T05:32:29.097Z,2.72
2023-02-13T05:34:57.441Z,4.30
2023-02-13T05:37:25.562Z,3.00
2023-02-13T05:39:54.219Z,2.63
2023-02-13T05:42:22.355Z,2.75
2023-02-13T05:44:50.854Z,2.50
2023-02-13T05:47:18.755Z,2.67
2023-02-13T05:49:46.917Z,2.03
2023-02-13T05:52:15.673Z,2.10
2023-02-13T05:54:44.357Z,4.00
2023-02-13T05:57:12.938Z,1.40
2023-02-13T05:59:41.104Z,4.68
2023-02-13T06:02:09.239Z,3.50
2023-02-13T06:04:37.785Z,4.65
2023-02-13T06:07:05.931Z,2.55
2023-02-13T06:09:35.056Z,3.60
2023-02-13T06:12:03.080Z,1.63
2023-02-13T06:14:31.488Z,0.98
2023-02-13T06:16:59.940Z,1.38
2023-02-13T06:19:28.148Z,1.58
2023-02-13T06:21:56.341Z,3.75
2023-02-13T06:24:24.887Z,2.47
2023-02-13T06:26:53.670Z,2.50
2023-02-13T06:29:21.535Z,3.03
2023-02-13T06:31:49.768Z,1.67
2023-02-13T06:34:18.359Z,1.33
2023-02-13T06:36:46.969Z,1.95
2023-02-13T06:39:15.039Z,2.03
2023-02-13T06:41:43.252Z,2.05
2023-02-13T06:44:11.510Z,2.13
2023-02-13T06:46:39.974Z,2.05
2023-02-13T06:49:08.452Z,2.88
2023-02-13T06:51:36.605Z,1.92
2023-02-13T06:54:04.684Z,1.95
2023-02-13T06:56:33.605Z,3.83
2023-02-13T06:59:01.394Z,7.07
2023-02-13T07:01:29.236Z,3.58
2023-02-13T07:03:57.462Z,2.17
2023-02-13T07:06:25.591Z,4.10
2023-02-13T07:08:56.748Z,2.58
2023-02-13T07:11:26.603Z,1.23
2023-02-13T07:13:55.896Z,3.58
2023-02-13T07:16:24.497Z,1.95
2023-02-13T07:18:54.200Z,1.35
2023-02-13T07:21:22.487Z,3.28
2023-02-13T07:23:50.492Z,1.83
2023-02-13T07:26:18.645Z,4.88
2023-02-13T07:28:46.661Z,1.25
2023-02-13T07:31:14.805Z,1.80
2023-02-13T07:33:45.231Z,4.28
2023-02-13T07:36:13.213Z,2.05
2023-02-13T07:38:41.009Z,0.88
2023-02-13T07:41:09.648Z,0.52
2023-02-13T07:43:37.509Z,2.40
2023-02-13T07:46:06.669Z,2.20
2023-02-13T07:48:36.022Z,3.15
2023-02-13T07:51:05.637Z,4.10
2023-02-13T07:53:33.863Z,2.70
2023-02-13T07:56:12.170Z,3.92
2023-02-13T07:59:00.070Z,6.35
2023-02-13T08:01:28.849Z,4.63
2023-02-13T08:03:59.367Z,4.78
2023-02-13T08:06:29.935Z,1.83
2023-02-13T08:09:17.716Z,3.20
2023-02-13T08:12:01.528Z,2.85
2023-02-13T08:14:29.335Z,3.40
2023-02-13T08:17:00.396Z,4.00
2023-02-13T08:19:28.431Z,6.20
2023-02-13T08:21:56.391Z,1.98
2023-02-13T08:24:24.703Z,3.33
2023-02-13T08:26:52.881Z,3.83
2023-02-13T08:29:21.184Z,1.42
2023-02-13T08:31:48.863Z,7.72
2023-02-13T08:34:16.428Z,5.47
2023-02-13T08:36:44.622Z,3.92
2023-02-13T08:39:12.537Z,3.17
2023-02-13T08:41:40.300Z,3.53
2023-02-13T08:44:08.223Z,4.00
2023-02-13T08:46:36.021Z,6.38
2023-02-13T08:49:04.403Z,2.25
2023-02-13T08:51:31.881Z,2.78
2023-02-13T08:54:00.016Z,4.40
2023-02-13T08:56:27.544Z,5.80
2023-02-13T08:58:55.390Z,4.30
2023-02-13T09:01:24.575Z,4.28
2023-02-13T09:03:52.564Z,4.65
2023-02-13T09:06:20.013Z,4.32
2023-02-13T09:08:47.549Z,4.85
2023-02-13T09:11:15.534Z,3.70
2023-02-13T09:13:43.418Z,3.58
2023-02-13T09:16:12.195Z,2.65
2023-02-13T09:18:39.648Z,3.25
2023-02-13T09:21:10.389Z,2.95
2023-02-13T09:23:40.436Z,4.95
2023-02-13T09:26:11.242Z,5.38
2023-02-13T09:28:39.587Z,4.20
2023-02-13T09:33:46.420Z,4.95
2023-02-13T09:36:16.637Z,3.47
2023-02-13T09:38:44.452Z,4.90
2023-02-13T09:41:17.327Z,2.72
2023-02-13T09:43:55.998Z,5.90
2023-02-13T09:46:28.708Z,3.40
2023-02-13T09:48:57.499Z,5.45
2023-02-13T09:51:26.024Z,4.63
2023-02-13T09:56:50.365Z,3.22
2023-02-13T10:02:00.772Z,6.15
2023-02-13T10:04:47.164Z,8.38
2023-02-13T10:10:02.798Z,4.63
2023-02-13T10:15:49.917Z,3.95
2023-02-13T10:18:20.218Z,4.32
2023-02-13T10:20:57.500Z,6.00
2023-02-13T10:26:08.165Z,3.67
2023-02-13T10:29:09.437Z,4.47
2023-02-13T10:31:37.663Z,3.30
2023-02-13T10:34:07.295Z,2.72
2023-02-13T10:36:37.017Z,4.88
2023-02-13T10:41:53.617Z,6.53
2023-02-13T10:58:19.581Z,4.72
2023-02-13T11:01:31.369Z,6.05
2023-02-13T11:04:12.091Z,3.60
2023-02-13T11:06:44.572Z,6.22
2023-02-13T11:09:13.832Z,2.45
2023-02-13T11:11:44.299Z,6.20
2023-02-13T11:14:27.553Z,5.13
2023-02-13T11:16:58.617Z,3.97
2023-02-13T11:22:17.610Z,3.67
2023-02-13T11:24:53.918Z,4.57
2023-02-13T11:27:25.122Z,4.53
2023-02-13T11:29:57.226Z,3.75
2023-02-13T11:32:27.304Z,4.20
2023-02-13T11:34:56.381Z,3.15
2023-02-13T11:37:29.384Z,5.40
2023-02-13T11:39:59.029Z,4.03
2023-02-13T11:42:31.998Z,4.00
2023-02-13T11:45:02.304Z,6.95
2023-02-13T11:50:35.182Z,2.35
2023-02-13T11:53:06.431Z,3.67
2023-02-13T11:55:36.599Z,2.28
2023-02-13T11:58:24.140Z,3.38
2023-02-13T12:01:10.214Z,5.18
2023-02-13T12:03:39.087Z,6.28
2023-02-13T12:06:14.350Z,5.55
2023-02-13T12:08:45.471Z,3.70
2023-02-13T12:13:54.360Z,5.87
2023-02-13T12:16:43.276Z,4.93
2023-02-13T12:19:15.564Z,5.38
2023-02-13T12:38:49.833Z,6.40
2023-02-13T12:44:25.039Z,5.78
2023-02-13T12:50:06.661Z,4.18
2023-02-13T13:09:36.392Z,3.45
2023-02-13T13:12:17.261Z,3.35
2023-02-13T13:14:59.156Z,3.65
2023-02-13T13:23:13.989Z,3.35
2023-02-13T13:28:30.337Z,4.35
2023-02-13T13:30:58.872Z,3.28
2023-02-13T13:33:28.794Z,4.57
2023-02-13T13:39:24.921Z,4.93
2023-02-13T13:42:02.742Z,3.20
2023-02-13T13:47:24.830Z,6.78
2023-02-13T13:49:55.610Z,3.45
2023-02-13T13:52:33.268Z,7.38
2023-02-13T13:55:03.051Z,7.00
2023-02-13T14:05:59.614Z,6.55
2023-02-13T14:11:38.983Z,5.47
2023-02-13T14:17:04.722Z,7.57
2023-02-13T14:19:37.875Z,5.25
2023-02-13T14:25:00.186Z,6.47
2023-02-13T14:27:31.203Z,5.13
2023-02-13T14:29:59.341Z,4.93
2023-02-13T14:35:14.823Z,5.35
2023-02-13T14:38:00.118Z,5.97
2023-02-13T14:40:33.597Z,9.07
2023-02-13T14:43:17.385Z,5.60
2023-02-13T14:45:56.154Z,7.28
2023-02-13T14:48:33.152Z,5.28
2023-02-13T14:51:00.917Z,7.78
2023-02-13T14:53:32.835Z,5.40
2023-02-13T14:56:07.191Z,3.22
2023-02-13T14:58:48.884Z,5.07
2023-02-13T15:01:34.812Z,6.70
2023-02-13T15:04:23.478Z,7.68
2023-02-13T15:06:51.335Z,6.53
2023-02-13T15:12:03.135Z,6.57
2023-02-13T15:14:35.107Z,6.82
2023-02-13T15:19:45.529Z,5.93
2023-02-13T15:22:36.195Z,8.73
2023-02-13T15:25:04.266Z,6.97
2023-02-13T15:27:34.399Z,5.65
2023-02-13T15:32:41.586Z,11.65
2023-02-13T15:35:24.245Z,9.88
2023-02-13T15:37:51.885Z,10.88
2023-02-13T15:40:39.934Z,8.07
2023-02-13T15:43:21.760Z,9.57
2023-02-13T15:45:49.213Z,7.47
2023-02-13T15:48:17.760Z,7.47
2023-02-13T15:50:45.839Z,5.45
2023-02-13T15:53:15.997Z,6.38
2023-02-13T15:55:56.481Z,6.70
2023-02-13T15:58:28.721Z,7.55
2023-02-13T16:00:56.966Z,8.75
2023-02-13T16:03:26.058Z,6.97
2023-02-13T16:05:54.014Z,8.07
2023-02-13T16:08:32.599Z,6.60
2023-02-13T16:11:27.360Z,10.60
2023-02-13T16:16:46.557Z,9.45
2023-02-13T16:19:34.593Z,5.93
2023-02-13T16:22:18.632Z,4.13
2023-02-13T16:24:50.664Z,6.25
2023-02-13T16:27:18.408Z,4.75
2023-02-13T16:29:53.647Z,8.02
2023-02-13T16:32:27.224Z,7.65
2023-02-13T16:34:55.964Z,10.48
2023-02-13T16:37:28.004Z,9.65
2023-02-13T16:39:55.489Z,8.13
2023-02-13T16:42:23.361Z,7.63
2023-02-13T16:44:50.794Z,5.93
2023-02-13T16:47:23.721Z,7.20
2023-02-13T16:49:54.431Z,6.03
2023-02-13T16:52:26.202Z,8.13
2023-02-13T16:57:34.465Z,6.97
2023-02-13T17:00:24.585Z,8.45
2023-02-13T17:02:52.959Z,8.20
2023-02-13T17:08:01.855Z,8.07
2023-02-13T17:10:34.147Z,8.40
2023-02-13T17:15:32.021Z,8.32
2023-02-13T17:18:00.240Z,9.50
2023-02-13T17:20:31.679Z,7.35
2023-02-13T17:23:01.397Z,9.10
2023-02-13T17:25:31.711Z,9.52
2023-02-13T17:28:01.955Z,10.02
2023-02-13T17:30:32.676Z,8.45
2023-02-13T17:33:28.450Z,6.00
2023-02-13T17:35:55.983Z,8.02
2023-02-13T17:38:23.734Z,7.82
2023-02-13T17:40:52.036Z,10.00
2023-02-13T17:43:20.199Z,8.15
2023-02-13T17:45:48.220Z,7.35
2023-02-13T17:48:15.995Z,7.65
2023-02-13T17:50:43.572Z,4.90
2023-02-13T17:53:30.000Z,7.95
2023-02-13T17:55:58.027Z,9.82
2023-02-13T17:58:25.527Z,8.32
2023-02-13T18:00:53.066Z,7.32
2023-02-13T18:03:20.821Z,7.22
2023-02-13T18:05:49.657Z,7.60
2023-02-13T18:08:17.255Z,8.65
2023-02-13T18:10:44.768Z,8.20
2023-02-13T18:13:12.515Z,11.13
2023-02-13T18:15:42.321Z,6.13
2023-02-13T18:18:10.813Z,7.30
2023-02-13T18:20:38.321Z,7.28
2023-02-13T18:23:07.413Z,6.78
2023-02-13T18:25:35.333Z,9.73
2023-02-13T18:28:02.821Z,7.55
2023-02-13T18:30:30.588Z,6.72
2023-02-13T18:32:59.549Z,7.65
2023-02-13T18:35:27.491Z,8.88
2023-02-13T18:37:55.105Z,7.45
2023-02-13T18:40:25.388Z,7.10
2023-02-13T18:42:52.875Z,6.82
2023-02-13T18:45:21.481Z,8.40
2023-02-13T18:47:48.964Z,8.30
2023-02-13T18:50:16.482Z,7.38
2023-02-13T18:52:44.119Z,9.55
2023-02-13T18:55:11.543Z,12.90
2023-02-13T18:57:43.665Z,12.20
2023-02-13T19:00:11.796Z,12.50
2023-02-13T19:02:39.402Z,6.80
2023-02-13T19:05:07.803Z,5.40
2023-02-13T19:07:35.231Z,5.35
2023-02-13T19:10:02.782Z,8.63
2023-02-13T19:12:30.735Z,5.22
2023-02-13T19:14:58.384Z,6.10
2023-02-13T19:17:26.287Z,6.03
2023-02-13T19:19:55.318Z,4.82
2023-02-13T19:22:22.699Z,4.35
2023-02-13T19:24:51.326Z,7.10
2023-02-13T19:27:19.011Z,10.85
2023-02-13T19:29:49.737Z,5.22
2023-02-13T19:32:17.324Z,12.30
2023-02-13T19:34:46.163Z,9.73
2023-02-13T19:37:13.554Z,12.73
2023-02-13T19:39:40.987Z,9.07
2023-02-13T19:42:08.295Z,12.10
2023-02-13T19:44:35.608Z,10.80
2023-02-13T19:47:03.489Z,12.38
2023-02-13T19:49:30.913Z,10.85
2023-02-13T19:51:58.252Z,11.38
2023-02-13T19:54:25.577Z,10.15
2023-02-13T19:56:54.919Z,7.45
2023-02-13T19:59:22.225Z,8.43
2023-02-13T20:01:49.552Z,10.63
2023-02-13T20:04:16.907Z,7.10
2023-02-13T20:06:44.306Z,8.15
2023-02-13T20:09:13.116Z,7.60
2023-02-13T20:11:41.656Z,8.38
2023-02-13T20:14:14.956Z,13.85
2023-02-13T20:16:43.203Z,12.55
2023-02-13T20:19:11.886Z,12.68
2023-02-13T20:21:41.128Z,9.57
2023-02-13T20:24:09.268Z,10.13
2023-02-13T20:26:36.980Z,9.82
2023-02-13T20:29:04.421Z,9.18
2023-02-13T20:31:34.212Z,13.32
2023-02-13T20:34:01.842Z,9.35
2023-02-13T20:36:31.402Z,11.57
2023-02-13T20:39:01.185Z,11.55
2023-02-13T20:41:30.928Z,11.43
2023-02-13T20:44:00.113Z,11.70
2023-02-13T20:46:30.522Z,11.55
2023-02-13T20:48:58.209Z,8.32
2023-02-13T20:51:25.613Z,11.38
2023-02-13T20:53:53.051Z,9.48
2023-02-13T20:56:23.824Z,9.00
2023-02-13T20:58:52.392Z,6.28
2023-02-13T21:01:24.062Z,8.68
2023-02-13T21:03:53.996Z,10.73
2023-02-13T21:06:26.320Z,11.68
2023-02-13T21:08:55.176Z,12.40
2023-02-13T21:11:23.178Z,12.48
2023-02-13T21:13:51.076Z,12.35
2023-02-13T21:16:21.850Z,12.70
2023-02-13T21:18:51.527Z,7.90
2023-02-13T21:21:20.368Z,9.95
2023-02-13T21:23:47.879Z,9.52
2023-02-13T21:26:17.611Z,10.10
2023-02-13T21:28:46.457Z,8.68
2023-02-13T21:31:18.090Z,7.15
2023-02-13T21:33:45.681Z,9.40
2023-02-13T21:36:13.505Z,9.18
2023-02-13T21:38:42.104Z,9.23
2023-02-13T21:43:47.626Z,6.75
2023-02-13T21:46:18.578Z,5.78
2023-02-13T21:48:46.803Z,7.85
2023-02-13T21:51:17.175Z,5.53
2023-02-13T21:53:45.843Z,8.63
2023-02-13T21:56:20.928Z,5.93
2023-02-13T21:58:48.714Z,8.77
2023-02-13T22:03:53.255Z,11.05
2023-02-13T22:06:21.867Z,8.65
2023-02-13T22:08:49.695Z,7.88
2023-02-13T22:11:18.597Z,8.93
2023-02-13T22:13:45.941Z,8.07
2023-02-13T22:16:14.993Z,7.50
2023-02-13T22:18:44.207Z,8.07
2023-02-13T22:21:14.880Z,8.52
2023-02-13T22:23:43.439Z,7.15
2023-02-13T22:26:18.224Z,8.13
2023-02-13T22:28:46.159Z,8.18
2023-02-13T22:31:14.474Z,8.13
2023-02-13T22:33:42.970Z,7.68
2023-02-13T22:36:13.226Z,7.40
2023-02-13T22:38:41.267Z,5.72
2023-02-13T22:41:12.718Z,6.00
2023-02-13T22:43:40.518Z,7.40
2023-02-13T22:48:47.218Z,9.75
2023-02-13T22:51:18.081Z,7.03
2023-02-13T22:53:45.476Z,9.45
2023-02-13T22:56:12.978Z,6.40
2023-02-13T22:58:40.338Z,7.60
2023-02-13T23:01:17.448Z,6.65
2023-02-13T23:03:45.056Z,8.52
2023-02-13T23:06:13.842Z,5.82
2023-02-13T23:08:41.715Z,8.77
2023-02-13T23:11:32.878Z,6.63
2023-02-13T23:14:00.641Z,7.68
2023-02-13T23:16:28.725Z,7.15
2023-02-13T23:18:57.336Z,7.53
2023-02-13T23:21:25.845Z,7.30
2023-02-13T23:23:53.689Z,7.30
2023-02-13T23:26:21.017Z,7.82
2023-02-13T23:28:48.349Z,5.63
2023-02-13T23:31:15.716Z,5.40
2023-02-13T23:33:43.062Z,8.70
2023-02-13T23:36:10.412Z,7.43
2023-02-13T23:38:37.748Z,7.60
2023-02-13T23:41:08.546Z,8.00
2023-02-13T23:43:35.871Z,8.07
2023-02-13T23:46:04.861Z,6.80
2023-02-13T23:48:32.916Z,4.47
2023-02-13T23:51:01.027Z,6.72
2023-02-13T23:53:28.600Z,6.10
2023-02-13T23:55:55.980Z,4.50
2023-02-13T23:58:23.732Z,6.03
